Gabriella — OJHP — position and weather

sailwx.info

Track history (hours):
 
Tides and Currents Weather Stations Pressure Air Temp Water Temp Dewpoint Dewpoint Depression Visibility Wind Speed Wind Dir Waves Ship Positions

Gabriella

Last reported at 2015-Apr-19 05:28 UTC. Time now 2015-Apr-19 07:56 UTC.
Position N 59°52' E 024°29'.

Length 172 m; draft 6.5 m.

Type: Ship (hazmat cat A). MMSI: 230361000.

Date/timePositionNaut miles runAvg speedWind from/ knotsBaromVisibWave heightAir tempDewpointWater temp
2015-Apr-19 05:28N 59°52' E 024°29'1618.1
2015-Apr-19 04:33N 59°46' E 023°58'1818.2
2015-Apr-19 03:33N 59°42' E 023°23'4118.2
2015-Apr-19 01:16N 59°33' E 022°03'1318.1
2015-Apr-19 00:34N 59°33' E 021°37'9711.5
2015-Apr-18 16:06N 59°27' E 018°26'610.9
2015-Apr-18 15:33N 59°22' E 018°27'1110.5
2015-Apr-18 14:33N 59°19' E 018°07'0 0.4
2015-Apr-18 13:32N 59°19' E 018°06'0 0.0
2015-Apr-18 12:32N 59°19' E 018°06'0 0.0
2015-Apr-18 11:32N 59°19' E 018°06'0 0.0
2015-Apr-18 10:32N 59°19' E 018°06'0 0.0
2015-Apr-18 09:32N 59°19' E 018°06'0 0.0
2015-Apr-18 08:32N 59°19' E 018°06'2 2.0
2015-Apr-18 07:33N 59°19' E 018°10'91 9.8
2015-Apr-17 22:17N 59°37' E 021°06'1317.5
2015-Apr-17 21:33N 59°34' E 021°30'5417.3
2015-Apr-17 18:27N 59°41' E 023°15'1617.6
2015-Apr-17 17:33N 59°46' E 023°45'1817.0
2015-Apr-17 16:32N 59°55' E 024°14'2612.9
2015-Apr-17 14:30N 60°10' E 024°58'23 2.6
2015-Apr-17 05:28N 59°52' E 024°28'1718.0
2015-Apr-17 04:33N 59°47' E 023°57'1818.0
2015-Apr-17 03:33N 59°42' E 023°23'4018.1
2015-Apr-17 01:22N 59°33' E 022°06'1518.0
2015-Apr-17 00:33N 59°33' E 021°38'9711.5
2015-Apr-16 16:07N 59°28' E 018°26'610.0
2015-Apr-16 15:31N 59°22' E 018°27'1010.7
2015-Apr-16 14:33N 59°19' E 018°07'1 0.6
2015-Apr-16 13:33N 59°19' E 018°06'0 0.0
2015-Apr-16 12:32N 59°19' E 018°06'0 0.0
2015-Apr-16 11:32N 59°19' E 018°06'0 0.0
2015-Apr-16 10:33N 59°19' E 018°06'0 0.0
2015-Apr-16 09:33N 59°19' E 018°06'0 0.0
2015-Apr-16 08:33N 59°19' E 018°06'2 1.6
2015-Apr-16 07:33N 59°19' E 018°09'10210.2
2015-Apr-15 21:34N 59°34' E 021°27'5217.3
2015-Apr-15 18:33N 59°40' E 023°10'1717.3
2015-Apr-15 17:33N 59°44' E 023°43'1817.3
2015-Apr-15 16:30N 59°50' E 024°17'7 0.7
2015-Apr-15 05:33N 59°52' E 024°31'1818.0
2015-Apr-15 04:34N 59°46' E 023°57'1818.1
2015-Apr-15 03:33N 59°42' E 023°22'3818.1
2015-Apr-15 01:27N 59°33' E 022°09'1617.8
2015-Apr-15 00:33N 59°33' E 021°38'1818.1
2015-Apr-14 23:33N 59°37' E 021°03'8010.7
2015-Apr-14 16:05N 59°27' E 018°26'610.0
2015-Apr-14 15:31N 59°22' E 018°27'1010.8
2015-Apr-14 14:34N 59°19' E 018°07'1 0.7
2015-Apr-14 13:32N 59°19' E 018°06'0 0.0
2015-Apr-14 12:32N 59°19' E 018°06'0 0.0
2015-Apr-14 11:32N 59°19' E 018°06'0 0.0
2015-Apr-14 10:32N 59°19' E 018°06'0 0.0
2015-Apr-14 09:32N 59°19' E 018°06'0 0.0
2015-Apr-14 08:32N 59°19' E 018°06'2 1.9
2015-Apr-14 07:33N 59°19' E 018°09'10 8.5
2015-Apr-14 06:26N 59°23' E 018°27'8210.0
2015-Apr-13 22:16N 59°37' E 021°05'1217.4
2015-Apr-13 21:33N 59°34' E 021°29'5417.0
2015-Apr-13 18:23N 59°41' E 023°15'1417.3
2015-Apr-13 17:33N 59°44' E 023°42'1817.4
2015-Apr-13 16:30N 59°50' E 024°17'7 0.6
2015-Apr-13 05:30N 59°52' E 024°30'1717.9
2015-Apr-13 04:33N 59°47' E 023°58'1818.0
2015-Apr-13 03:33N 59°42' E 023°23'4118.3
2015-Apr-13 01:20N 59°33' E 022°05'1418.0
2015-Apr-13 00:34N 59°33' E 021°38'2118.3
2015-Apr-12 23:25N 59°37' E 020°57'7710.5
2015-Apr-12 16:04N 59°27' E 018°26'610.1
2015-Apr-12 15:30N 59°22' E 018°27'1010.7
2015-Apr-12 14:33N 59°19' E 018°08'1 0.8
2015-Apr-12 13:31N 59°19' E 018°06'0 0.0
2015-Apr-12 12:31N 59°19' E 018°06'0 0.0
2015-Apr-12 11:31N 59°19' E 018°06'0 0.0
2015-Apr-12 10:31N 59°19' E 018°06'0 0.0
2015-Apr-12 09:31N 59°19' E 018°06'0 0.0
2015-Apr-12 08:31N 59°19' E 018°06'2 1.7
2015-Apr-12 07:34N 59°19' E 018°09'92 9.9
2015-Apr-11 22:14N 59°37' E 021°06'1217.3
2015-Apr-11 21:33N 59°34' E 021°29'2116.9
2015-Apr-11 20:19N 59°34' E 022°10'3017.3
2015-Apr-11 18:33N 59°40' E 023°09'1817.4
2015-Apr-11 17:33N 59°44' E 023°43'1817.4
2015-Apr-11 16:32N 59°49' E 024°17'7 0.6
2015-Apr-11 05:31N 59°52' E 024°30'1718.0
2015-Apr-11 04:33N 59°46' E 023°57'1818.1
2015-Apr-11 03:33N 59°42' E 023°23'3918.2
2015-Apr-11 01:24N 59°34' E 022°07'1517.9
2015-Apr-11 00:34N 59°33' E 021°37'9711.6
2015-Apr-10 16:09N 59°27' E 018°26'6 6.6
2015-Apr-10 15:11N 59°22' E 018°19'711.2
2015-Apr-10 14:33N 59°19' E 018°06'0 0.3
2015-Apr-10 13:32N 59°19' E 018°06'0 0.0
2015-Apr-10 12:32N 59°19' E 018°06'0 0.0
2015-Apr-10 11:32N 59°19' E 018°06'0 0.0
2015-Apr-10 10:32N 59°19' E 018°06'0 0.0
2015-Apr-10 09:32N 59°19' E 018°06'0 0.0
2015-Apr-10 08:32N 59°19' E 018°06'2 2.1
2015-Apr-10 07:33N 59°19' E 018°10'91 9.8
2015-Apr-09 22:16N 59°37' E 021°05'1217.4
2015-Apr-09 21:33N 59°34' E 021°29'1716.9
2015-Apr-09 20:33N 59°33' E 022°02'3517.3
2015-Apr-09 18:33N 59°40' E 023°09'1717.3
2015-Apr-09 17:33N 59°44' E 023°42'1817.4
2015-Apr-09 16:32N 59°49' E 024°16'1717.2
2015-Apr-09 15:32N 59°57' E 024°47'1413.5
2015-Apr-09 14:30N 60°10' E 024°58'22 2.4
2015-Apr-09 05:33N 59°52' E 024°31'  
Track history (hours):
 
Tides and Currents Weather Stations Pressure Air Temp Water Temp Dewpoint Dewpoint Depression Visibility Wind Speed Wind Dir Waves Ship Positions

Gabriella

Last reported at 2015-Apr-19 05:28 UTC. Time now 2015-Apr-19 07:56 UTC.
Position N 59°52' E 024°29'.

Length 172 m; draft 6.5 m.

Type: Ship (hazmat cat A). MMSI: 230361000.

Date/timePositionNaut miles runAvg speedWind from/ knotsBaromVisibWave heightAir tempDewpointWater temp
2015-Apr-19 05:28N 59°52' E 024°29'1618.1
2015-Apr-19 04:33N 59°46' E 023°58'1818.2
2015-Apr-19 03:33N 59°42' E 023°23'4118.2
2015-Apr-19 01:16N 59°33' E 022°03'1318.1
2015-Apr-19 00:34N 59°33' E 021°37'9711.5
2015-Apr-18 16:06N 59°27' E 018°26'610.9
2015-Apr-18 15:33N 59°22' E 018°27'1110.5
2015-Apr-18 14:33N 59°19' E 018°07'0 0.4
2015-Apr-18 13:32N 59°19' E 018°06'0 0.0
2015-Apr-18 12:32N 59°19' E 018°06'0 0.0
2015-Apr-18 11:32N 59°19' E 018°06'0 0.0
2015-Apr-18 10:32N 59°19' E 018°06'0 0.0
2015-Apr-18 09:32N 59°19' E 018°06'0 0.0
2015-Apr-18 08:32N 59°19' E 018°06'2 2.0
2015-Apr-18 07:33N 59°19' E 018°10'91 9.8
2015-Apr-17 22:17N 59°37' E 021°06'1317.5
2015-Apr-17 21:33N 59°34' E 021°30'5417.3
2015-Apr-17 18:27N 59°41' E 023°15'1617.6
2015-Apr-17 17:33N 59°46' E 023°45'1817.0
2015-Apr-17 16:32N 59°55' E 024°14'2612.9
2015-Apr-17 14:30N 60°10' E 024°58'23 2.6
2015-Apr-17 05:28N 59°52' E 024°28'1718.0
2015-Apr-17 04:33N 59°47' E 023°57'1818.0
2015-Apr-17 03:33N 59°42' E 023°23'4018.1
2015-Apr-17 01:22N 59°33' E 022°06'1518.0
2015-Apr-17 00:33N 59°33' E 021°38'9711.5
2015-Apr-16 16:07N 59°28' E 018°26'610.0
2015-Apr-16 15:31N 59°22' E 018°27'1010.7
2015-Apr-16 14:33N 59°19' E 018°07'1 0.6
2015-Apr-16 13:33N 59°19' E 018°06'0 0.0
2015-Apr-16 12:32N 59°19' E 018°06'0 0.0
2015-Apr-16 11:32N 59°19' E 018°06'0 0.0
2015-Apr-16 10:33N 59°19' E 018°06'0 0.0
2015-Apr-16 09:33N 59°19' E 018°06'0 0.0
2015-Apr-16 08:33N 59°19' E 018°06'2 1.6
2015-Apr-16 07:33N 59°19' E 018°09'10210.2
2015-Apr-15 21:34N 59°34' E 021°27'5217.3
2015-Apr-15 18:33N 59°40' E 023°10'1717.3
2015-Apr-15 17:33N 59°44' E 023°43'1817.3
2015-Apr-15 16:30N 59°50' E 024°17'7 0.7
2015-Apr-15 05:33N 59°52' E 024°31'1818.0
2015-Apr-15 04:34N 59°46' E 023°57'1818.1
2015-Apr-15 03:33N 59°42' E 023°22'3818.1
2015-Apr-15 01:27N 59°33' E 022°09'1617.8
2015-Apr-15 00:33N 59°33' E 021°38'1818.1
2015-Apr-14 23:33N 59°37' E 021°03'8010.7
2015-Apr-14 16:05N 59°27' E 018°26'610.0
2015-Apr-14 15:31N 59°22' E 018°27'1010.8
2015-Apr-14 14:34N 59°19' E 018°07'1 0.7
2015-Apr-14 13:32N 59°19' E 018°06'0 0.0
2015-Apr-14 12:32N 59°19' E 018°06'0 0.0
2015-Apr-14 11:32N 59°19' E 018°06'0 0.0
2015-Apr-14 10:32N 59°19' E 018°06'0 0.0
2015-Apr-14 09:32N 59°19' E 018°06'0 0.0
2015-Apr-14 08:32N 59°19' E 018°06'2 1.9
2015-Apr-14 07:33N 59°19' E 018°09'10 8.5
2015-Apr-14 06:26N 59°23' E 018°27'8210.0
2015-Apr-13 22:16N 59°37' E 021°05'1217.4
2015-Apr-13 21:33N 59°34' E 021°29'5417.0
2015-Apr-13 18:23N 59°41' E 023°15'1417.3
2015-Apr-13 17:33N 59°44' E 023°42'1817.4
2015-Apr-13 16:30N 59°50' E 024°17'7 0.6
2015-Apr-13 05:30N 59°52' E 024°30'1717.9
2015-Apr-13 04:33N 59°47' E 023°58'1818.0
2015-Apr-13 03:33N 59°42' E 023°23'4118.3
2015-Apr-13 01:20N 59°33' E 022°05'1418.0
2015-Apr-13 00:34N 59°33' E 021°38'2118.3
2015-Apr-12 23:25N 59°37' E 020°57'7710.5
2015-Apr-12 16:04N 59°27' E 018°26'610.1
2015-Apr-12 15:30N 59°22' E 018°27'1010.7
2015-Apr-12 14:33N 59°19' E 018°08'1 0.8
2015-Apr-12 13:31N 59°19' E 018°06'0 0.0
2015-Apr-12 12:31N 59°19' E 018°06'0 0.0
2015-Apr-12 11:31N 59°19' E 018°06'0 0.0
2015-Apr-12 10:31N 59°19' E 018°06'0 0.0
2015-Apr-12 09:31N 59°19' E 018°06'0 0.0
2015-Apr-12 08:31N 59°19' E 018°06'2 1.7
2015-Apr-12 07:34N 59°19' E 018°09'92 9.9
2015-Apr-11 22:14N 59°37' E 021°06'1217.3
2015-Apr-11 21:33N 59°34' E 021°29'2116.9
2015-Apr-11 20:19N 59°34' E 022°10'3017.3
2015-Apr-11 18:33N 59°40' E 023°09'1817.4
2015-Apr-11 17:33N 59°44' E 023°43'1817.4
2015-Apr-11 16:32N 59°49' E 024°17'7 0.6
2015-Apr-11 05:31N 59°52' E 024°30'1718.0
2015-Apr-11 04:33N 59°46' E 023°57'1818.1
2015-Apr-11 03:33N 59°42' E 023°23'3918.2
2015-Apr-11 01:24N 59°34' E 022°07'1517.9
2015-Apr-11 00:34N 59°33' E 021°37'9711.6
2015-Apr-10 16:09N 59°27' E 018°26'6 6.6
2015-Apr-10 15:11N 59°22' E 018°19'711.2
2015-Apr-10 14:33N 59°19' E 018°06'0 0.3
2015-Apr-10 13:32N 59°19' E 018°06'0 0.0
2015-Apr-10 12:32N 59°19' E 018°06'0 0.0
2015-Apr-10 11:32N 59°19' E 018°06'0 0.0
2015-Apr-10 10:32N 59°19' E 018°06'0 0.0
2015-Apr-10 09:32N 59°19' E 018°06'0 0.0
2015-Apr-10 08:32N 59°19' E 018°06'2 2.1
2015-Apr-10 07:33N 59°19' E 018°10'91 9.8
2015-Apr-09 22:16N 59°37' E 021°05'1217.4
2015-Apr-09 21:33N 59°34' E 021°29'1716.9
2015-Apr-09 20:33N 59°33' E 022°02'3517.3
2015-Apr-09 18:33N 59°40' E 023°09'1717.3
2015-Apr-09 17:33N 59°44' E 023°42'1817.4
2015-Apr-09 16:32N 59°49' E 024°16'1717.2
2015-Apr-09 15:32N 59°57' E 024°47'1413.5
2015-Apr-09 14:30N 60°10' E 024°58'22 2.4
2015-Apr-09 05:33N 59°52' E 024°31'  

Dump ship's entire track history